Time;durP1;ratioP1;P1;durP2;ratioP2;P2;SDS_P1;SDS_P2;PMS_P1;PMS_P2;Temp;Humidity;BMP_temperature;BMP_pressure;BME280_temperature;BME280_humidity;BME280_pressure;Samples;Min_cycle;Max_cycle;Signal;HPM_P1;HPM_P2
2023/02/12 00:02:17;;;;;;;23.88;13.20;;;;;;;-2.01;63.83;100467.06;5028819;28;20020;-93
2023/02/12 00:04:42;;;;;;;25.63;12.60;;;;;;;-1.99;63.01;100465.94;5029678;28;20029;-93
2023/02/12 00:07:08;;;;;;;20.75;11.80;;;;;;;-1.95;62.35;100461.16;5028576;28;20032;-93
2023/02/12 00:09:34;;;;;;;25.02;13.65;;;;;;;-1.82;61.97;100461.53;5029573;28;20024;-92
2023/02/12 00:11:59;;;;;;;23.25;12.18;;;;;;;-1.85;62.18;100467.97;5027682;28;20024;-94
2023/02/12 00:14:24;;;;;;;23.65;12.75;;;;;;;-1.88;62.13;100460.34;5029448;28;20032;-92
2023/02/12 00:16:50;;;;;;;19.25;11.95;;;;;;;-1.81;62.37;100452.63;5028196;28;20016;-93
2023/02/12 00:19:15;;;;;;;29.17;14.55;;;;;;;-2.07;63.54;100473.81;5028632;28;20398;-92
2023/02/12 00:21:41;;;;;;;25.95;13.80;;;;;;;-2.09;63.17;100470.53;5028486;28;20470;-93
2023/02/12 00:24:06;;;;;;;22.38;14.07;;;;;;;-2.32;64.13;100463.16;5027925;28;20387;-94
2023/02/12 00:26:32;;;;;;;26.10;13.55;;;;;;;-2.33;64.40;100458.03;5028211;28;20433;-93
2023/02/12 00:28:57;;;;;;;20.58;13.23;;;;;;;-2.39;64.43;100467.41;5028252;28;20025;-93
2023/02/12 00:31:25;;;;;;;21.05;12.95;;;;;;;-2.47;64.17;100452.38;5028547;28;20008;-93
2023/02/12 00:33:50;;;;;;;26.63;14.30;;;;;;;-2.30;64.15;100468.28;5028419;28;20029;-93
2023/02/12 00:36:18;;;;;;;23.17;12.75;;;;;;;-2.33;64.15;100450.13;5029026;28;20021;-93
2023/02/12 00:38:44;;;;;;;25.65;12.88;;;;;;;-2.26;63.71;100457.25;5028920;28;20048;-93
2023/02/12 00:41:09;;;;;;;25.95;13.75;;;;;;;-2.24;64.07;100463.19;5026767;28;20158;-93
2023/02/12 00:46:56;;;;;;;28.33;15.02;;;;;;;-2.42;64.63;100454.53;5078783;28;20110;-92
2023/02/12 00:49:23;;;;;;;28.52;15.18;;;;;;;-2.54;64.99;100446.06;5027575;28;20044;-92
2023/02/12 00:51:48;;;;;;;26.27;14.55;;;;;;;-2.59;65.46;100453.63;5028385;28;20020;-92
2023/02/12 00:54:14;;;;;;;29.75;14.68;;;;;;;-2.57;65.47;100458.72;5028672;28;20032;-92
2023/02/12 00:56:39;;;;;;;24.20;14.35;;;;;;;-2.50;65.19;100465.03;5027903;28;20082;-93
2023/02/12 00:59:04;;;;;;;24.83;14.15;;;;;;;-2.69;66.13;100461.63;5027243;28;20379;-92
2023/02/12 01:01:30;;;;;;;20.48;12.88;;;;;;;-2.73;65.33;100462.09;5027805;28;20055;-92
2023/02/12 01:03:55;;;;;;;21.98;13.23;;;;;;;-2.82;65.63;100445.41;5027938;28;20028;-93
2023/02/12 01:06:21;;;;;;;19.88;11.77;;;;;;;-2.67;65.29;100457.03;5027677;28;20017;-92
2023/02/12 01:08:49;;;;;;;17.50;10.63;;;;;;;-2.80;65.55;100451.38;5026692;28;20020;-93
2023/02/12 01:11:15;;;;;;;22.13;10.88;;;;;;;-2.94;65.76;100444.84;5027028;28;20090;-92
2023/02/12 01:13:40;;;;;;;24.73;14.50;;;;;;;-2.95;66.45;100455.53;5027321;28;20020;-92
2023/02/12 01:16:09;;;;;;;21.52;12.98;;;;;;;-2.90;66.11;100459.34;5027458;28;20056;-93
2023/02/12 01:18:35;;;;;;;27.02;12.48;;;;;;;-2.98;66.38;100458.47;5027951;28;20103;-92
2023/02/12 01:21:01;;;;;;;24.65;12.23;;;;;;;-3.00;66.47;100447.25;5028021;28;20028;-92
2023/02/12 01:23:26;;;;;;;23.95;13.27;;;;;;;-3.02;66.17;100444.78;5028060;28;20031;-93
2023/02/12 01:25:52;;;;;;;26.38;12.02;;;;;;;-2.98;66.16;100443.50;5027712;28;20482;-92
2023/02/12 01:28:17;;;;;;;25.30;13.07;;;;;;;-3.03;66.75;100432.56;5026525;28;20465;-92
2023/02/12 01:30:43;;;;;;;24.85;13.68;;;;;;;-2.95;66.46;100451.06;5026525;28;20032;-92
2023/02/12 01:33:08;;;;;;;26.38;14.07;;;;;;;-2.95;66.68;100443.16;5027261;28;20035;-93
2023/02/12 01:35:36;;;;;;;25.35;13.70;;;;;;;-2.94;66.61;100438.75;5026625;28;20020;-93
2023/02/12 01:38:01;;;;;;;21.05;11.57;;;;;;;-2.84;66.01;100442.09;5026827;28;20403;-93
2023/02/12 01:40:27;;;;;;;38.47;13.80;;;;;;;-2.94;66.46;100429.03;5027356;28;20031;-93
2023/02/12 01:42:52;;;;;;;23.10;12.20;;;;;;;-2.98;66.79;100430.31;5027515;28;20032;-92
2023/02/12 01:45:39;;;;;;;25.17;13.63;;;;;;;-2.97;67.55;100417.97;5027284;28;20027;-92
2023/02/12 01:48:05;;;;;;;23.02;12.85;;;;;;;-2.95;66.26;100416.00;5044652;28;20024;-92
2023/02/12 01:50:30;;;;;;;25.13;13.38;;;;;;;-2.82;66.48;100426.97;5027074;28;20518;-92
2023/02/12 01:52:56;;;;;;;27.73;14.40;;;;;;;-2.84;66.23;100410.50;5025279;28;20066;-93
2023/02/12 01:55:21;;;;;;;24.50;13.15;;;;;;;-2.79;65.63;100402.94;5026863;28;20448;-92
2023/02/12 01:57:47;;;;;;;23.88;12.55;;;;;;;-2.68;65.71;100407.94;5026700;28;20035;-92
2023/02/12 02:00:18;;;;;;;25.10;11.98;;;;;;;-2.56;65.14;100397.13;5027376;28;20082;-92
2023/02/12 02:02:45;;;;;;;21.15;11.32;;;;;;;-2.46;65.04;100397.81;5027356;28;20032;-93
2023/02/12 02:05:10;;;;;;;21.98;13.50;;;;;;;-2.50;64.98;100399.13;5027943;28;20067;-93
2023/02/12 02:07:36;;;;;;;22.10;12.32;;;;;;;-2.48;65.04;100399.78;5027743;28;20028;-93
2023/02/12 02:10:01;;;;;;;21.13;12.80;;;;;;;-2.55;65.69;100410.16;5027631;28;20401;-93
2023/02/12 02:15:11;;;;;;;20.55;11.43;;;;;;;-2.61;65.85;100387.03;5048908;28;20082;-92
2023/02/12 02:17:36;;;;;;;21.98;12.80;;;;;;;-2.43;65.13;100389.56;5026411;28;20036;-92
2023/02/12 02:20:39;;;;;;;23.27;13.23;;;;;;;-2.38;65.33;100383.84;5059674;28;20387;-93
2023/02/12 02:23:22;;;;;;;;;;;;;;;-2.32;64.95;100385.84;5060442;28;20086;-93
2023/02/12 02:26:21;;;;;;;17.65;10.38;;;;;;;-2.23;64.95;100395.44;5059340;28;19940;-95
2023/02/12 02:29:21;;;;;;;18.35;12.32;;;;;;;-2.22;65.08;100398.88;5043523;28;20040;-95
2023/02/12 02:32:13;;;;;;;24.02;12.35;;;;;;;-2.20;64.54;100384.56;5059299;28;20024;-94
2023/02/12 02:35:16;;;;;;;18.75;12.38;;;;;;;-2.13;64.86;100390.03;5016575;28;20036;-94
2023/02/12 02:37:49;;;;;;;18.95;11.35;;;;;;;-2.19;64.68;100372.19;5059266;28;20024;-94
2023/02/12 02:40:22;;;;;;;28.55;13.18;;;;;;;-2.14;64.68;100370.72;5027088;28;20115;-94
2023/02/12 02:42:51;;;;;;;25.20;13.35;;;;;;;-1.98;64.24;100384.94;5026772;28;20456;-95
2023/02/12 02:45:37;;;;;;;20.48;12.75;;;;;;;-1.91;63.58;100375.38;5042563;28;20033;-95
2023/02/12 02:48:13;;;;;;;26.33;13.35;;;;;;;-1.96;63.55;100381.16;5042059;28;20040;-95
2023/02/12 02:50:40;;;;;;;24.55;14.23;;;;;;;-2.00;64.13;100392.19;5026495;28;20043;-94
2023/02/12 02:53:21;;;;;;;21.65;12.63;;;;;;;-2.11;64.20;100380.16;5026146;28;20035;-94
2023/02/12 02:55:49;;;;;;;21.95;11.85;;;;;;;-1.97;63.79;100371.59;5026692;28;20127;-95
2023/02/12 02:58:21;;;;;;;21.88;13.00;;;;;;;-1.80;62.88;100367.16;5026734;28;20032;-95
2023/02/12 03:01:16;;;;;;;25.02;13.30;;;;;;;-1.71;63.64;100382.00;5026812;28;20021;-94
2023/02/12 03:03:54;;;;;;;22.45;13.90;;;;;;;-1.53;63.05;100381.06;5043632;28;20032;-94
2023/02/12 03:06:26;;;;;;;27.20;17.48;;;;;;;-1.52;63.22;100394.06;5030959;28;20020;-95
2023/02/12 03:08:53;;;;;;;;;;;;;;;-1.49;62.77;100399.03;5046869;28;20032;-95
2023/02/12 03:11:27;;;;;;;34.50;19.05;;;;;;;-1.53;62.95;100373.13;5063250;28;19908;-95
2023/02/12 03:14:05;;;;;;;29.42;16.92;;;;;;;-1.48;63.01;100395.41;5030631;28;20128;-94
2023/02/12 03:16:33;;;;;;;27.85;16.63;;;;;;;-1.50;63.10;100373.59;5046452;28;20052;-95
2023/02/12 03:19:09;;;;;;;32.58;20.67;;;;;;;-1.38;62.83;100383.84;5029656;28;20529;-95
2023/02/12 03:21:47;;;;;;;32.05;18.85;;;;;;;-1.39;63.37;100390.13;5046308;28;20028;-94
2023/02/12 03:24:18;;;;;;;31.05;15.05;;;;;;;-1.61;63.72;100373.13;5030463;28;20028;-94
2023/02/12 03:26:50;;;;;;;25.30;13.30;;;;;;;-1.69;63.84;100374.75;5030760;28;20024;-94
2023/02/12 03:29:15;;;;;;;;;;;;;;;-1.47;63.30;100391.78;5030965;28;20028;-92
2023/02/12 03:31:44;;;;;;;21.10;12.05;;;;;;;-1.49;63.31;100388.47;5063242;28;20332;-93
2023/02/12 03:34:24;;;;;;;18.85;11.45;;;;;;;-1.42;63.10;100386.81;5046097;28;20486;-93
2023/02/12 03:36:56;;;;;;;20.50;11.95;;;;;;;-1.45;63.63;100391.63;5046116;28;20048;-93
2023/02/12 03:39:29;;;;;;;21.77;13.52;;;;;;;-1.44;63.18;100388.78;5045466;28;20119;-92
2023/02/12 03:42:30;;;;;;;25.88;13.18;;;;;;;-1.43;63.12;100387.81;5062308;28;20119;-93
2023/02/12 03:45:17;;;;;;;24.55;13.50;;;;;;;-1.53;63.55;100383.69;5051970;28;20036;-93
2023/02/12 03:48:06;;;;;;;18.98;11.85;;;;;;;-1.66;63.56;100379.72;5054996;28;20518;-93
2023/02/12 03:50:58;;;;;;;21.55;13.55;;;;;;;-1.69;63.08;100369.47;5031400;28;20033;-93
2023/02/12 03:53:25;;;;;;;19.63;11.63;;;;;;;-1.57;63.23;100369.16;5045175;28;20040;-94
2023/02/12 03:55:51;;;;;;;24.45;13.65;;;;;;;-1.57;63.03;100379.72;5028690;28;20025;-93
2023/02/12 03:58:19;;;;;;;26.90;12.77;;;;;;;-1.54;62.92;100384.66;5029973;28;20068;-92
2023/02/12 04:00:44;;;;;;;28.77;14.77;;;;;;;-1.53;63.49;100396.91;5028874;28;20028;-93
2023/02/12 04:03:10;;;;;;;21.33;11.70;;;;;;;-1.56;62.85;100384.81;5029302;28;20456;-93
2023/02/12 04:05:35;;;;;;;26.10;14.38;;;;;;;-1.53;63.08;100394.25;5027820;28;20470;-93
2023/02/12 04:08:01;;;;;;;32.70;21.25;;;;;;;-1.71;63.41;100397.03;5030072;28;20024;-93
2023/02/12 04:10:34;;;;;;;28.33;14.32;;;;;;;-1.74;63.82;100386.78;5045328;28;20082;-93
2023/02/12 04:13:09;;;;;;;23.58;12.10;;;;;;;-1.70;63.18;100403.97;5045515;28;20024;-93
2023/02/12 04:16:10;;;;;;;24.45;14.48;;;;;;;-1.87;63.54;100393.41;5061115;28;20028;-93
2023/02/12 04:18:43;;;;;;;21.33;12.57;;;;;;;-1.65;63.16;100409.59;5047419;28;20056;-93
2023/02/12 04:21:19;;;;;;;23.45;12.38;;;;;;;-1.67;62.70;100406.28;5045014;28;20028;-93
2023/02/12 04:24:03;;;;;;;24.52;13.32;;;;;;;-1.60;62.53;100404.63;5045666;28;20020;-93
2023/02/12 04:26:50;;;;;;;22.50;13.35;;;;;;;-1.46;62.27;100406.63;5061506;28;20098;-93
2023/02/12 04:29:36;;;;;;;23.45;11.65;;;;;;;-1.57;62.77;100388.47;5061918;28;20039;-92
2023/02/12 04:32:11;;;;;;;20.83;11.93;;;;;;;-1.40;62.83;100405.16;5045225;28;20028;-92
2023/02/12 04:34:52;;;;;;;20.63;11.85;;;;;;;-1.31;62.33;100412.06;5045435;28;20078;-92
2023/02/12 04:37:37;;;;;;;20.77;12.25;;;;;;;-1.25;62.10;100406.13;5061070;28;20531;-93
2023/02/12 04:40:05;;;;;;;28.30;14.32;;;;;;;-1.23;61.63;100398.84;5045236;28;20036;-93
2023/02/12 04:42:30;;;;;;;22.48;12.75;;;;;;;-1.19;61.88;100402.00;5044672;28;20056;-93
2023/02/12 04:44:56;;;;;;;26.05;13.38;;;;;;;-1.18;62.18;100408.94;5028449;28;20028;-92
2023/02/12 04:47:21;;;;;;;25.42;14.40;;;;;;;-1.25;62.21;100414.06;5044946;28;20024;-93
2023/02/12 04:49:46;;;;;;;21.42;14.10;;;;;;;-1.17;62.50;100428.25;5027162;28;20044;-92
2023/02/12 04:52:12;;;;;;;22.25;12.88;;;;;;;-1.21;62.46;100411.91;5044017;28;20426;-92
2023/02/12 04:54:37;;;;;;;25.77;14.02;;;;;;;-1.07;62.02;100418.34;5026922;28;20032;-93
2023/02/12 04:57:03;;;;;;;30.08;13.55;;;;;;;-0.97;61.99;100429.56;5028167;28;20033;-93
2023/02/12 04:59:28;;;;;;;23.35;14.25;;;;;;;-0.82;62.00;100442.94;5027408;28;20410;-92
2023/02/12 05:01:54;;;;;;;27.08;14.13;;;;;;;-0.90;62.03;100421.78;5027453;28;20429;-94
2023/02/12 05:04:19;;;;;;;25.77;13.15;;;;;;;-0.84;61.98;100437.00;5027817;28;20039;-92
2023/02/12 05:06:45;;;;;;;24.65;13.35;;;;;;;-0.88;61.82;100433.84;5028167;28;20025;-92
2023/02/12 05:09:17;;;;;;;26.77;14.82;;;;;;;-0.93;61.91;100438.81;5027671;28;20071;-93
2023/02/12 05:11:43;;;;;;;20.58;13.68;;;;;;;-0.84;62.33;100450.22;5044708;28;20056;-93
2023/02/12 05:14:09;;;;;;;23.70;13.10;;;;;;;-0.80;62.15;100464.75;5027527;28;20028;-92
2023/02/12 05:16:34;;;;;;;29.70;14.63;;;;;;;-0.83;61.68;100463.28;5027733;28;20000;-92
2023/02/12 05:19:00;;;;;;;23.30;13.48;;;;;;;-0.83;62.23;100455.34;5027130;28;20028;-92
2023/02/12 05:21:25;;;;;;;34.30;17.80;;;;;;;-0.83;62.41;100470.34;5027183;28;20035;-93
2023/02/12 05:23:50;;;;;;;28.65;14.77;;;;;;;-0.94;62.20;100466.22;5027597;28;20039;-93
2023/02/12 05:26:18;;;;;;;27.48;14.48;;;;;;;-0.80;62.27;100477.97;5026997;28;20027;-92
2023/02/12 05:28:44;;;;;;;28.13;14.95;;;;;;;-0.91;62.40;100479.13;5026664;28;20036;-92
2023/02/12 05:31:12;;;;;;;27.20;14.07;;;;;;;-0.95;62.40;100461.97;5026927;28;20020;-92
2023/02/12 05:33:38;;;;;;;24.67;14.65;;;;;;;-1.02;62.89;100476.81;5028363;28;20029;-92
2023/02/12 05:36:08;;;;;;;33.65;18.48;;;;;;;-0.97;62.83;100495.66;5044855;28;20070;-94
2023/02/12 05:38:33;;;;;;;24.52;14.38;;;;;;;-0.99;62.78;100494.19;5028286;28;20039;-93
2023/02/12 05:41:07;;;;;;;27.02;15.32;;;;;;;-1.10;63.19;100496.16;5027338;28;20021;-94
2023/02/12 05:43:32;;;;;;;24.58;14.43;;;;;;;-1.11;63.30;100509.53;5026991;28;20060;-92
2023/02/12 05:45:59;;;;;;;32.05;15.48;;;;;;;-0.98;62.67;100507.22;5026733;28;20467;-93
2023/02/12 05:48:25;;;;;;;25.25;14.65;;;;;;;-0.86;62.98;100515.66;5026668;28;20511;-93
2023/02/12 05:50:51;;;;;;;30.15;15.15;;;;;;;-0.80;63.07;100525.56;5027035;28;20016;-93
2023/02/12 05:53:16;;;;;;;28.10;15.65;;;;;;;-0.84;62.83;100508.38;5027091;28;20034;-92
2023/02/12 05:55:41;;;;;;;35.50;16.20;;;;;;;-0.80;62.77;100516.81;5028044;28;20021;-93
2023/02/12 05:58:07;;;;;;;28.52;15.30;;;;;;;-0.81;62.97;100508.03;5026509;28;20033;-93
2023/02/12 06:00:32;;;;;;;32.42;17.35;;;;;;;-0.90;63.21;100519.63;5025644;28;20036;-93
2023/02/12 06:02:58;;;;;;;31.50;17.15;;;;;;;-0.99;63.28;100531.19;5027109;28;20474;-93
2023/02/12 06:05:23;;;;;;;29.58;15.52;;;;;;;-1.00;63.57;100527.69;5026417;28;20012;-93
2023/02/12 06:07:49;;;;;;;29.15;16.60;;;;;;;-0.99;63.00;100528.53;5026420;28;20029;-93
2023/02/12 06:10:14;;;;;;;27.02;15.52;;;;;;;-0.79;62.59;100544.88;5027901;28;20086;-93
2023/02/12 06:12:40;;;;;;;38.08;15.80;;;;;;;-0.83;62.66;100531.16;5028026;28;20067;-93
2023/02/12 06:15:06;;;;;;;27.73;15.80;;;;;;;-0.77;62.84;100522.56;5026345;28;20008;-93
2023/02/12 06:17:33;;;;;;;36.72;16.98;;;;;;;-0.66;62.70;100527.53;5026103;28;20016;-93
2023/02/12 06:19:58;;;;;;;28.02;15.05;;;;;;;-0.61;62.40;100525.19;5027066;28;20380;-93
2023/02/12 06:22:24;;;;;;;31.90;17.02;;;;;;;-0.58;62.78;100539.09;5026532;28;20039;-94
2023/02/12 06:24:49;;;;;;;28.75;16.33;;;;;;;-0.66;62.50;100530.19;5026764;28;20085;-93
2023/02/12 06:27:14;;;;;;;31.10;17.35;;;;;;;-0.69;62.92;100545.56;5024975;28;20505;-93
2023/02/12 06:29:40;;;;;;;37.78;17.63;;;;;;;-0.64;62.62;100549.34;5026446;28;20035;-92
2023/02/12 06:32:07;;;;;;;29.88;16.48;;;;;;;-0.65;62.27;100539.75;5026849;28;20474;-95
2023/02/12 06:34:32;;;;;;;31.45;16.90;;;;;;;-0.50;62.37;100561.09;5026907;28;20580;-93
2023/02/12 06:36:58;;;;;;;29.67;17.33;;;;;;;-0.42;61.82;100552.31;5025848;28;20029;-93
2023/02/12 06:39:25;;;;;;;34.55;17.33;;;;;;;-0.45;61.98;100545.53;5025763;28;20032;-94
2023/02/12 06:41:50;;;;;;;32.15;17.08;;;;;;;-0.33;62.12;100555.75;5025885;28;20041;-92
2023/02/12 06:44:16;;;;;;;32.80;17.50;;;;;;;-0.34;62.33;100544.34;5025902;28;20035;-93
2023/02/12 06:46:41;;;;;;;35.53;19.20;;;;;;;-0.12;62.07;100569.28;5025165;28;20021;-92
2023/02/12 06:49:07;;;;;;;35.42;20.25;;;;;;;-0.01;61.39;100568.09;5025881;28;20040;-92
2023/02/12 06:51:32;;;;;;;34.47;19.73;;;;;;;-0.03;61.94;100568.28;5026092;28;20465;-93
2023/02/12 06:53:58;;;;;;;35.30;20.58;;;;;;;-0.13;61.89;100553.56;5025403;28;20090;-92
2023/02/12 06:56:24;;;;;;;32.50;18.30;;;;;;;0.06;62.24;100562.94;5025982;28;20027;-91
2023/02/12 06:58:57;;;;;;;35.40;19.20;;;;;;;0.11;61.51;100550.03;5025778;28;20036;-93
2023/02/12 07:01:25;;;;;;;32.40;18.52;;;;;;;0.22;61.17;100554.13;5026084;28;20056;-92
2023/02/12 07:03:52;;;;;;;30.77;18.83;;;;;;;0.33;60.94;100554.59;5026672;28;20036;-93
2023/02/12 07:06:17;;;;;;;36.65;19.83;;;;;;;0.44;60.81;100565.81;5025052;28;20097;-92
2023/02/12 07:08:43;;;;;;;34.00;20.17;;;;;;;0.46;60.80;100561.13;5026374;28;20028;-92
2023/02/12 07:11:08;;;;;;;35.05;19.77;;;;;;;0.59;60.25;100578.13;5026053;28;20060;-92
2023/02/12 07:13:34;;;;;;;40.00;20.33;;;;;;;0.48;60.60;100559.13;5025072;28;20376;-94
2023/02/12 07:16:04;;;;;;;36.75;19.35;;;;;;;0.47;60.50;100562.81;5025403;28;20028;-93
2023/02/12 07:18:30;;;;;;;39.85;20.35;;;;;;;0.52;60.37;100574.53;5024592;28;20060;-93
2023/02/12 07:20:55;;;;;;;36.85;18.90;;;;;;;0.71;60.37;100575.94;5025159;28;20025;-93
2023/02/12 07:23:21;;;;;;;38.92;21.02;;;;;;;0.71;60.26;100578.56;5025405;28;20518;-93
2023/02/12 07:26:00;;;;;;;41.35;20.00;;;;;;;0.87;60.14;100587.44;5025891;28;20032;-92
2023/02/12 07:28:25;;;;;;;31.85;19.85;;;;;;;0.94;59.53;100580.44;5025099;28;20017;-92
2023/02/12 07:30:51;;;;;;;43.67;21.52;;;;;;;0.98;59.99;100565.84;5024998;28;20039;-91
2023/02/12 07:33:16;;;;;;;50.28;26.38;;;;;;;1.06;59.92;100584.34;5025951;28;20016;-91
2023/02/12 07:35:42;;;;;;;41.42;22.67;;;;;;;1.18;59.90;100574.13;5025681;28;20031;-92
2023/02/12 07:38:07;;;;;;;43.10;23.77;;;;;;;1.22;59.41;100559.50;5025516;28;20033;-90
2023/02/12 07:40:33;;;;;;;44.80;26.10;;;;;;;1.30;59.96;100574.53;5025532;28;20554;-90
2023/02/12 07:42:58;;;;;;;39.80;23.15;;;;;;;1.24;59.63;100560.16;5025615;28;20028;-90
2023/02/12 07:45:24;;;;;;;43.25;24.13;;;;;;;1.28;58.91;100564.09;5025019;28;20470;-90
2023/02/12 07:47:50;;;;;;;41.38;26.33;;;;;;;1.44;58.28;100572.94;5026103;28;20417;-91
2023/02/12 07:50:15;;;;;;;46.45;26.45;;;;;;;1.50;58.71;100574.88;5026156;28;20033;-92
2023/02/12 07:52:41;;;;;;;46.38;26.30;;;;;;;1.52;58.00;100559.59;5029302;28;20008;-89
2023/02/12 07:55:07;;;;;;;39.70;22.67;;;;;;;1.60;58.26;100576.28;5043109;28;20078;-92
2023/02/12 07:57:33;;;;;;;36.65;22.95;;;;;;;1.62;58.11;100578.75;5046159;28;20032;-94
2023/02/12 07:59:59;;;;;;;41.17;24.55;;;;;;;1.79;57.79;100584.72;5045511;28;20068;-91
2023/02/12 08:02:24;;;;;;;53.67;26.42;;;;;;;1.71;57.33;100568.88;5045999;28;20032;-95
2023/02/12 08:04:57;;;;;;;44.00;25.02;;;;;;;1.68;57.11;100569.22;5045262;28;20035;-92
2023/02/12 08:07:23;;;;;;;44.83;25.30;;;;;;;1.91;56.64;100583.28;5062580;28;20028;-93
2023/02/12 08:09:48;;;;;;;50.33;26.40;;;;;;;2.11;56.91;100588.06;5045088;28;20028;-93
2023/02/12 08:12:14;;;;;;;44.78;25.27;;;;;;;1.96;56.97;100574.78;5045085;28;20040;-92
2023/02/12 08:14:39;;;;;;;46.67;26.52;;;;;;;2.12;56.96;100571.13;5045711;28;20029;-93
2023/02/12 08:17:05;;;;;;;46.58;26.20;;;;;;;2.19;56.67;100572.03;5045271;28;20054;-92
2023/02/12 08:19:30;;;;;;;47.15;26.42;;;;;;;2.29;56.48;100577.06;5044780;28;20028;-93
2023/02/12 08:21:56;;;;;;;49.22;25.25;;;;;;;2.45;56.90;100581.34;5045050;28;20483;-92
2023/02/12 08:24:22;;;;;;;50.83;25.48;;;;;;;2.45;56.59;100586.66;5044665;28;20029;-92
2023/02/12 08:26:47;;;;;;;57.05;28.73;;;;;;;2.61;56.28;100589.97;5045982;28;20031;-92
2023/02/12 08:29:15;;;;;;;42.17;25.65;;;;;;;2.60;56.08;100590.94;5045857;28;20471;-93
2023/02/12 08:31:42;;;;;;;50.65;26.60;;;;;;;2.70;55.68;100589.81;5044562;28;20036;-91
2023/02/12 08:34:20;;;;;;;55.47;29.80;;;;;;;2.90;56.07;100579.41;5045760;28;20555;-92
2023/02/12 08:36:47;;;;;;;54.90;29.05;;;;;;;2.93;55.63;100574.56;5045718;28;20085;-92
2023/02/12 08:39:12;;;;;;;57.25;31.88;;;;;;;2.86;55.61;100578.97;5044910;28;20035;-93
2023/02/12 08:41:38;;;;;;;51.65;29.25;;;;;;;2.87;56.07;100572.66;5044471;28;20028;-92
2023/02/12 08:44:04;;;;;;;53.40;28.35;;;;;;;2.93;55.40;100587.84;5044844;28;20028;-93
2023/02/12 08:46:31;;;;;;;53.20;26.17;;;;;;;2.90;54.82;100572.25;5044885;28;20029;-92
2023/02/12 08:48:58;;;;;;;52.65;24.70;;;;;;;3.02;54.60;100589.38;5043777;28;20040;-92
2023/02/12 08:51:25;;;;;;;51.30;23.33;;;;;;;3.03;55.65;100595.53;5043976;28;20028;-91
2023/02/12 08:53:52;;;;;;;42.55;23.48;;;;;;;3.06;55.09;100602.31;5044028;28;20035;-92
2023/02/12 08:56:18;;;;;;;56.35;25.45;;;;;;;3.19;54.65;100600.59;5043883;28;20467;-92
2023/02/12 08:58:44;;;;;;;45.78;24.30;;;;;;;3.34;53.96;100600.56;5044407;28;20127;-93
2023/02/12 09:01:11;;;;;;;43.50;22.58;;;;;;;3.51;54.31;100610.91;5044807;28;20032;-92
2023/02/12 09:03:36;;;;;;;33.72;16.77;;;;;;;3.48;53.11;100611.31;5043787;28;20029;-92
2023/02/12 09:06:03;;;;;;;42.92;19.17;;;;;;;3.65;52.59;100628.66;5058731;28;20827;-86
2023/02/12 09:08:29;;;;;;;39.10;20.95;;;;;;;3.77;53.22;100612.97;5058437;28;20426;-86
2023/02/12 09:10:54;;;;;;;24.08;13.02;;;;;;;3.87;49.71;100620.66;5058984;28;20020;-86
2023/02/12 09:13:20;;;;;;;27.73;12.52;;;;;;;3.93;49.55;100630.53;5042303;28;20446;-88
2023/02/12 09:15:45;;;;;;;16.92;9.43;;;;;;;4.06;48.05;100643.94;5041517;28;20031;-87
2023/02/12 09:18:12;;;;;;;20.63;10.15;;;;;;;4.03;48.60;100631.03;5042005;28;20115;-87
2023/02/12 09:20:38;;;;;;;21.88;9.77;;;;;;;4.15;47.83;100639.28;5040425;28;20400;-87
2023/02/12 09:23:05;;;;;;;18.77;9.98;;;;;;;4.30;48.38;100628.53;5044981;28;20069;-86
2023/02/12 09:25:33;;;;;;;20.67;10.82;;;;;;;4.37;47.60;100645.38;5045394;28;20020;-87
2023/02/12 09:28:01;;;;;;;18.67;9.73;;;;;;;4.30;46.56;100636.53;5045458;28;20545;-87
2023/02/12 09:30:27;;;;;;;18.60;10.05;;;;;;;4.48;46.48;100646.66;5045729;28;20061;-86
2023/02/12 09:32:52;;;;;;;18.95;9.20;;;;;;;4.52;45.32;100648.72;5044907;28;20139;-87
2023/02/12 09:35:18;;;;;;;15.52;9.23;;;;;;;4.69;45.81;100656.41;5044709;28;20028;-87
2023/02/12 09:37:44;;;;;;;19.23;10.10;;;;;;;4.74;45.79;100656.66;5041885;28;20032;-85
2023/02/12 09:40:15;;;;;;;21.38;10.23;;;;;;;4.85;45.36;100656.09;5024740;28;20032;-86
2023/02/12 09:42:50;;;;;;;18.77;9.93;;;;;;;5.02;44.60;100659.22;5025567;28;20505;-85
2023/02/12 09:45:20;;;;;;;19.08;10.52;;;;;;;5.12;44.33;100654.31;5041691;28;20025;-86
2023/02/12 09:47:46;;;;;;;23.13;11.38;;;;;;;5.24;45.25;100657.25;5025342;28;20020;-85
2023/02/12 09:50:31;;;;;;;18.35;10.57;;;;;;;5.37;44.25;100670.63;5057709;28;20108;-86
2023/02/12 09:52:58;;;;;;;23.00;10.35;;;;;;;5.46;43.96;100655.25;5057696;28;20062;-86
2023/02/12 09:55:30;;;;;;;20.65;10.43;;;;;;;5.58;43.65;100664.31;5024639;28;20020;-86
2023/02/12 09:57:56;;;;;;;19.70;10.50;;;;;;;5.49;43.44;100659.34;5025176;28;20066;-86
2023/02/12 10:00:30;;;;;;;22.80;11.38;;;;;;;5.72;43.57;100662.44;5024242;28;20056;-86
2023/02/12 10:02:56;;;;;;;19.15;11.18;;;;;;;5.77;42.84;100657.34;5024807;28;20464;-86
2023/02/12 10:05:28;;;;;;;21.10;10.05;;;;;;;5.77;42.89;100657.34;5023749;28;20021;-88
2023/02/12 10:07:57;;;;;;;;;;;;;;;5.87;43.94;100680.97;5040678;28;20036;-87
2023/02/12 10:10:28;;;;;;;20.17;9.43;;;;;;;5.84;43.57;100679.53;5056691;28;19909;-86
2023/02/12 10:13:02;;;;;;;22.55;10.02;;;;;;;6.05;43.31;100685.75;5057967;28;20036;-86
2023/02/12 10:15:38;;;;;;;19.73;10.15;;;;;;;6.06;43.47;100669.50;5026122;28;20075;-85
2023/02/12 10:18:10;;;;;;;22.63;9.85;;;;;;;6.07;43.50;100683.69;5023947;28;20032;-87
2023/02/12 10:20:42;;;;;;;;;;;;;;;6.19;43.15;100691.91;5041439;28;20036;-87
2023/02/12 10:23:18;;;;;;;18.00;9.77;;;;;;;6.10;43.07;100682.44;5056814;28;19931;-86
2023/02/12 10:25:48;;;;;;;23.67;9.85;;;;;;;6.14;43.51;100697.03;5040915;28;20028;-88
2023/02/12 10:28:22;;;;;;;18.38;10.73;;;;;;;6.10;43.70;100698.47;5059037;28;20390;-90
2023/02/12 10:30:56;;;;;;;21.73;11.15;;;;;;;6.11;43.25;100694.78;5044662;28;20522;-87
2023/02/12 10:33:26;;;;;;;25.50;11.40;;;;;;;5.98;44.16;100687.59;5043323;28;20024;-86
2023/02/12 10:35:58;;;;;;;20.20;10.70;;;;;;;5.96;44.04;100692.31;5043587;28;20027;-87
2023/02/12 10:38:32;;;;;;;26.08;11.07;;;;;;;6.16;43.35;100694.97;5044632;28;20032;-86
2023/02/12 10:41:01;;;;;;;19.33;10.75;;;;;;;6.27;43.95;100689.84;5044458;28;20083;-85
2023/02/12 10:43:27;;;;;;;22.30;12.05;;;;;;;6.23;43.29;100690.47;5043267;28;20462;-86
2023/02/12 10:45:52;;;;;;;28.90;13.63;;;;;;;6.44;42.73;100708.13;5060270;28;20085;-87
2023/02/12 10:48:23;;;;;;;26.42;12.40;;;;;;;6.42;42.81;100694.97;5043420;28;20059;-85
2023/02/12 10:50:59;;;;;;;24.15;12.55;;;;;;;6.52;42.69;100710.59;5043888;28;20044;-85
2023/02/12 10:53:32;;;;;;;23.08;11.35;;;;;;;6.27;42.74;100692.50;5056155;28;20028;-86
2023/02/12 10:56:18;;;;;;;25.10;11.95;;;;;;;6.36;42.84;100693.13;5039885;28;20108;-86
2023/02/12 10:58:49;;;;;;;24.65;12.90;;;;;;;6.54;42.63;100708.53;5056719;28;20114;-89
2023/02/12 11:01:40;;;;;;;23.20;13.73;;;;;;;6.63;42.56;100712.63;5056550;28;20402;-86
2023/02/12 11:04:26;;;;;;;24.98;11.43;;;;;;;6.30;42.51;100701.16;5056641;28;20035;-86
2023/02/12 11:07:05;;;;;;;22.63;12.05;;;;;;;6.31;42.90;100694.75;5039985;28;20487;-86
2023/02/12 11:09:35;;;;;;;25.80;12.68;;;;;;;6.25;43.57;100712.47;5039852;28;20020;-86
2023/02/12 11:12:00;;;;;;;24.92;13.45;;;;;;;6.11;43.41;100708.16;5040125;28;20029;-86
2023/02/12 11:14:26;;;;;;;22.35;10.98;;;;;;;6.02;43.84;100697.66;5039790;28;20030;-87
2023/02/12 11:16:53;;;;;;;23.15;12.43;;;;;;;6.14;44.31;100703.19;5039813;28;20020;-87
2023/02/12 11:19:23;;;;;;;23.60;12.52;;;;;;;6.19;43.26;100706.09;5040105;28;20119;-89
2023/02/12 11:21:49;;;;;;;25.02;12.05;;;;;;;6.15;43.62;100694.16;5041707;28;20048;-89
2023/02/12 11:24:32;;;;;;;23.63;11.95;;;;;;;6.17;43.07;100693.97;5041135;28;20047;-89
2023/02/12 11:27:15;;;;;;;18.38;11.63;;;;;;;6.33;43.63;100708.75;5045269;28;20013;-89
2023/02/12 11:29:50;;;;;;;22.52;11.82;;;;;;;6.13;44.97;100687.38;5061529;28;20375;-90
2023/02/12 11:32:16;;;;;;;22.10;11.90;;;;;;;6.32;43.85;100696.41;5045910;28;20029;-90